Time;durP1;ratioP1;P1;durP2;ratioP2;P2;SDS_P1;SDS_P2;PMS_P1;PMS_P2;Temp;Humidity;BMP_temperature;BMP_pressure;BME280_temperature;BME280_humidity;BME280_pressure;Samples;Min_cycle;Max_cycle;Signal;HPM_P1;HPM_P2
2022/08/19 00:01:27;;;;;;;18.55;10.35;;;;;;;;;;6269411;22;20402;-86
2022/08/19 00:03:53;;;;;;;28.73;10.93;;;;;;;;;;6245964;22;20497;-87
2022/08/19 00:06:26;;;;;;;22.83;10.27;;;;;;;;;;6245955;22;20023;-87
2022/08/19 00:08:52;;;;;;;20.75;10.48;;;;;;;;;;6273118;22;20012;-87
2022/08/19 00:11:18;;;;;;;19.63;10.68;;;;;;;;;;6245445;22;20011;-87
2022/08/19 00:13:48;;;;;;;22.00;10.35;;;;;;;;;;6271766;22;20008;-86
2022/08/19 00:16:14;;;;;;;23.35;10.57;;;;;;;;;;6245452;22;20008;-86
2022/08/19 00:18:40;;;;;;;22.92;10.63;;;;;;;;;;6272196;22;20004;-87
2022/08/19 00:21:08;;;;;;;20.10;10.50;;;;;;;;;;6244936;22;20023;-87
2022/08/19 00:23:36;;;;;;;23.52;10.48;;;;;;;;;;6271484;22;20446;-87
2022/08/19 00:26:02;;;;;;;18.50;9.82;;;;;;;;;;6244226;22;20015;-87
2022/08/19 00:28:28;;;;;;;22.15;10.68;;;;;;;;;;6272458;22;20482;-87
2022/08/19 00:30:55;;;;;;;33.63;11.00;;;;;;;;;;6244979;22;20074;-86
2022/08/19 00:33:21;;;;;;;20.38;10.57;;;;;;;;;;6245591;22;20336;-87
2022/08/19 00:35:47;;;;;;;23.20;9.95;;;;;;;;;;6245142;22;20313;-86
2022/08/19 00:38:13;;;;;;;27.02;10.73;;;;;;;;;;6271656;22;20441;-87
2022/08/19 00:40:40;;;;;;;22.58;11.02;;;;;;;;;;6272806;22;20312;-88
2022/08/19 00:43:12;;;;;;;20.13;10.07;;;;;;;;;;6246169;22;20028;-87
2022/08/19 00:45:41;;;;;;;19.52;10.30;;;;;;;;;;6272861;22;20008;-88
2022/08/19 00:48:08;;;;;;;23.27;10.82;;;;;;;;;;6274330;22;20583;-86
2022/08/19 00:50:34;;;;;;;22.67;10.20;;;;;;;;;;6271142;22;20011;-87
2022/08/19 00:53:03;;;;;;;18.10;9.65;;;;;;;;;;6272470;22;20016;-87
2022/08/19 00:55:31;;;;;;;23.90;11.13;;;;;;;;;;6275001;22;20003;-88
2022/08/19 00:57:58;;;;;;;16.95;9.48;;;;;;;;;;6271997;22;20011;-87
2022/08/19 01:00:25;;;;;;;19.40;10.50;;;;;;;;;;6270392;22;20008;-87
2022/08/19 01:02:53;;;;;;;18.45;9.07;;;;;;;;;;6271496;22;20054;-87
2022/08/19 01:05:22;;;;;;;26.83;9.10;;;;;;;;;;6245812;22;20432;-87
2022/08/19 01:07:48;;;;;;;26.73;9.48;;;;;;;;;;6271462;22;20008;-87
2022/08/19 01:10:18;;;;;;;18.13;9.02;;;;;;;;;;6272137;22;20778;-87
2022/08/19 01:12:45;;;;;;;17.90;9.23;;;;;;;;;;6271345;22;20383;-87
2022/08/19 01:15:12;;;;;;;19.45;9.73;;;;;;;;;;6271896;22;20062;-87
2022/08/19 01:17:39;;;;;;;18.25;8.52;;;;;;;;;;6271571;22;20003;-88
2022/08/19 01:20:07;;;;;;;22.73;9.75;;;;;;;;;;6271837;22;20335;-87
2022/08/19 01:22:33;;;;;;;22.73;9.77;;;;;;;;;;6271272;22;20014;-87
2022/08/19 01:24:59;;;;;;;19.10;9.07;;;;;;;;;;6271616;22;20145;-88
2022/08/19 01:27:25;;;;;;;15.30;9.50;;;;;;;;;;6272632;22;20402;-87
2022/08/19 01:29:51;;;;;;;17.75;10.30;;;;;;;;;;6244770;22;20011;-87
2022/08/19 01:32:19;;;;;;;18.50;9.45;;;;;;;;;;6271954;22;20082;-88
2022/08/19 01:34:46;;;;;;;22.98;9.38;;;;;;;;;;6269558;22;20370;-87
2022/08/19 01:37:13;;;;;;;19.05;9.68;;;;;;;;;;6268625;22;20007;-87
2022/08/19 01:39:40;;;;;;;27.20;11.02;;;;;;;;;;6245602;22;20141;-87
2022/08/19 01:42:08;;;;;;;18.67;9.60;;;;;;;;;;6267657;22;20065;-87
2022/08/19 01:44:36;;;;;;;24.65;11.27;;;;;;;;;;6268364;22;20348;-87
2022/08/19 01:47:05;;;;;;;22.55;11.38;;;;;;;;;;6266067;22;20241;-87
2022/08/19 01:49:31;;;;;;;17.98;11.00;;;;;;;;;;6269752;22;19999;-88
2022/08/19 01:51:57;;;;;;;22.27;11.57;;;;;;;;;;6268445;22;20010;-87
2022/08/19 01:54:24;;;;;;;23.33;10.75;;;;;;;;;;6243392;22;20016;-88
2022/08/19 01:56:52;;;;;;;29.10;9.95;;;;;;;;;;6244822;22;20034;-88
2022/08/19 01:59:21;;;;;;;20.90;9.50;;;;;;;;;;6269329;22;20007;-88
2022/08/19 02:01:47;;;;;;;17.98;9.48;;;;;;;;;;6269248;22;19996;-88
2022/08/19 02:04:14;;;;;;;22.00;11.02;;;;;;;;;;6269165;22;20000;-87
2022/08/19 02:06:40;;;;;;;23.23;10.55;;;;;;;;;;6268992;22;20414;-88
2022/08/19 02:09:07;;;;;;;26.75;11.07;;;;;;;;;;6269430;22;20054;-88
2022/08/19 02:11:35;;;;;;;23.48;10.45;;;;;;;;;;6270099;22;20368;-88
2022/08/19 02:14:02;;;;;;;26.85;10.80;;;;;;;;;;6268888;22;20366;-88
2022/08/19 02:16:29;;;;;;;24.35;11.50;;;;;;;;;;6269705;22;20420;-88
2022/08/19 02:18:55;;;;;;;27.45;11.63;;;;;;;;;;6243734;22;20012;-88
2022/08/19 02:21:22;;;;;;;20.90;11.25;;;;;;;;;;6243558;22;20007;-88
2022/08/19 02:23:48;;;;;;;33.55;11.57;;;;;;;;;;6269823;22;20019;-88
2022/08/19 02:26:14;;;;;;;22.38;10.20;;;;;;;;;;6268475;22;20039;-88
2022/08/19 02:28:42;;;;;;;21.58;10.90;;;;;;;;;;6244341;22;20027;-88
2022/08/19 02:31:12;;;;;;;21.38;10.18;;;;;;;;;;6269127;22;20386;-88
2022/08/19 02:33:38;;;;;;;23.58;10.65;;;;;;;;;;6269133;22;20004;-88
2022/08/19 02:36:05;;;;;;;17.58;10.13;;;;;;;;;;6243899;22;20038;-88
2022/08/19 02:38:32;;;;;;;25.25;10.73;;;;;;;;;;6268597;22;20004;-88
2022/08/19 02:41:18;;;;;;;22.13;10.35;;;;;;;;;;6266466;22;20486;-88
2022/08/19 02:43:44;;;;;;;29.05;11.60;;;;;;;;;;6267263;22;20470;-88
2022/08/19 02:46:20;;;;;;;22.77;10.70;;;;;;;;;;6240662;22;20011;-88
2022/08/19 02:48:46;;;;;;;;;;;;;;;;;;6267415;22;20033;-87
2022/08/19 02:51:22;;;;;;;18.75;10.40;;;;;;;;;;6266289;22;19903;-87
2022/08/19 02:53:48;;;;;;;28.45;11.90;;;;;;;;;;6267230;22;20080;-87
2022/08/19 02:56:14;;;;;;;21.70;11.15;;;;;;;;;;6266409;22;20031;-86
2022/08/19 02:58:41;;;;;;;27.42;12.45;;;;;;;;;;6260074;22;20010;-86
2022/08/19 03:01:07;;;;;;;26.08;11.82;;;;;;;;;;6261039;22;20114;-86
2022/08/19 03:03:34;;;;;;;23.25;11.40;;;;;;;;;;6240655;22;20008;-87
2022/08/19 03:06:19;;;;;;;23.65;10.80;;;;;;;;;;6264687;22;20351;-86
2022/08/19 03:08:45;;;;;;;27.67;12.18;;;;;;;;;;6266045;22;20018;-87
2022/08/19 03:11:31;;;;;;;28.50;12.48;;;;;;;;;;6265883;22;20015;-87
2022/08/19 03:13:58;;;;;;;25.15;11.52;;;;;;;;;;6267196;22;20061;-88
2022/08/19 03:16:25;;;;;;;27.85;11.52;;;;;;;;;;6265192;22;20039;-88
2022/08/19 03:18:52;;;;;;;26.52;11.98;;;;;;;;;;6266633;22;20003;-85
2022/08/19 03:21:20;;;;;;;24.88;11.32;;;;;;;;;;6266466;22;20003;-87
2022/08/19 03:23:46;;;;;;;29.73;13.93;;;;;;;;;;6267604;22;20050;-87
2022/08/19 03:26:14;;;;;;;28.80;14.07;;;;;;;;;;6262164;22;20428;-87
2022/08/19 03:28:40;;;;;;;29.20;13.63;;;;;;;;;;6241686;22;20499;-87
2022/08/19 03:31:08;;;;;;;37.25;14.70;;;;;;;;;;6264626;22;20358;-87
2022/08/19 03:33:35;;;;;;;27.42;12.43;;;;;;;;;;6266465;22;20014;-87
2022/08/19 03:36:02;;;;;;;29.08;12.55;;;;;;;;;;6265612;22;20479;-86
2022/08/19 03:38:29;;;;;;;25.70;11.93;;;;;;;;;;6265298;22;20099;-87
2022/08/19 03:40:55;;;;;;;29.73;12.75;;;;;;;;;;6265087;22;20004;-87
2022/08/19 03:43:21;;;;;;;25.30;12.13;;;;;;;;;;6267679;22;20077;-88
2022/08/19 03:45:48;;;;;;;26.45;11.93;;;;;;;;;;6241354;22;20015;-87
2022/08/19 03:48:16;;;;;;;19.80;10.93;;;;;;;;;;6242523;22;20008;-87
2022/08/19 03:50:42;;;;;;;25.95;11.45;;;;;;;;;;6267189;22;20043;-88
2022/08/19 03:53:08;;;;;;;20.17;10.35;;;;;;;;;;6266821;22;20065;-88
2022/08/19 03:55:39;;;;;;;23.65;11.18;;;;;;;;;;6242745;22;20410;-87
2022/08/19 03:58:06;;;;;;;23.00;11.35;;;;;;;;;;6268606;22;20006;-87
2022/08/19 04:00:33;;;;;;;17.85;9.52;;;;;;;;;;6267846;22;20436;-87
2022/08/19 04:03:00;;;;;;;19.42;9.10;;;;;;;;;;6270274;22;20022;-87
2022/08/19 04:05:28;;;;;;;22.38;9.10;;;;;;;;;;6267268;22;20016;-87
2022/08/19 04:07:57;;;;;;;16.58;8.95;;;;;;;;;;6268836;22;20014;-88
2022/08/19 04:10:23;;;;;;;16.77;8.07;;;;;;;;;;6245831;22;20019;-87
2022/08/19 04:12:50;;;;;;;13.73;8.07;;;;;;;;;;6243782;22;20266;-87
2022/08/19 04:15:16;;;;;;;20.77;9.25;;;;;;;;;;6269389;22;20003;-87
2022/08/19 04:17:42;;;;;;;18.88;9.82;;;;;;;;;;6269029;22;20035;-87
2022/08/19 04:20:08;;;;;;;16.60;9.05;;;;;;;;;;6245524;22;20058;-87
2022/08/19 04:22:34;;;;;;;21.60;10.27;;;;;;;;;;6267885;22;20348;-87
2022/08/19 04:25:00;;;;;;;25.83;11.55;;;;;;;;;;6240976;22;20038;-87
2022/08/19 04:27:26;;;;;;;20.02;9.73;;;;;;;;;;6267502;22;20016;-87
2022/08/19 04:29:53;;;;;;;20.38;10.48;;;;;;;;;;6244607;22;20062;-88
2022/08/19 04:32:19;;;;;;;19.33;9.38;;;;;;;;;;6268991;22;20010;-87
2022/08/19 04:34:45;;;;;;;19.83;8.82;;;;;;;;;;6245599;22;20320;-87
2022/08/19 04:37:12;;;;;;;19.83;8.70;;;;;;;;;;6268810;22;20053;-87
2022/08/19 04:42:39;;;;;;;16.75;8.15;;;;;;;;;;6270405;22;20386;-87
2022/08/19 04:45:05;;;;;;;18.25;7.53;;;;;;;;;;6270062;22;20008;-87
2022/08/19 04:47:32;;;;;;;17.83;8.63;;;;;;;;;;6269140;22;20489;-88
2022/08/19 04:49:58;;;;;;;17.38;8.05;;;;;;;;;;6242742;22;20003;-87
2022/08/19 04:52:24;;;;;;;18.15;8.25;;;;;;;;;;6267486;22;20099;-87
2022/08/19 04:54:50;;;;;;;18.42;8.05;;;;;;;;;;6245066;22;20004;-87
2022/08/19 04:57:16;;;;;;;18.63;8.55;;;;;;;;;;6268951;22;20007;-87
2022/08/19 04:59:42;;;;;;;32.65;10.90;;;;;;;;;;6269558;22;20004;-87
2022/08/19 05:02:09;;;;;;;30.92;13.98;;;;;;;;;;6267579;22;20011;-87
2022/08/19 05:04:38;;;;;;;42.05;14.98;;;;;;;;;;6269488;22;20014;-87
2022/08/19 05:07:04;;;;;;;38.58;13.50;;;;;;;;;;6268872;22;20106;-87
2022/08/19 05:09:31;;;;;;;26.13;13.25;;;;;;;;;;6241966;22;20341;-87
2022/08/19 05:11:57;;;;;;;30.70;12.43;;;;;;;;;;6268958;22;20015;-87
2022/08/19 05:14:23;;;;;;;31.75;12.82;;;;;;;;;;6266312;22;20016;-87
2022/08/19 05:16:49;;;;;;;25.42;12.07;;;;;;;;;;6244752;22;20008;-87
2022/08/19 05:24:45;;;;;;;28.35;11.23;;;;;;;;;;6271619;22;20886;-87
2022/08/19 05:27:11;;;;;;;24.70;11.20;;;;;;;;;;6241006;22;20019;-88
2022/08/19 05:29:37;;;;;;;21.80;11.38;;;;;;;;;;6245594;22;20469;-87
2022/08/19 05:32:04;;;;;;;21.80;11.02;;;;;;;;;;6242650;22;20039;-87
2022/08/19 05:34:32;;;;;;;21.77;11.68;;;;;;;;;;6271296;22;20030;-87
2022/08/19 05:36:59;;;;;;;21.23;10.80;;;;;;;;;;6269671;22;20031;-87
2022/08/19 05:39:40;;;;;;;20.40;10.65;;;;;;;;;;6245012;22;20003;-87
2022/08/19 05:42:11;;;;;;;18.33;10.40;;;;;;;;;;6271514;22;20014;-87
2022/08/19 05:44:39;;;;;;;20.48;9.98;;;;;;;;;;6269558;22;20019;-86
2022/08/19 05:47:06;;;;;;;24.77;10.50;;;;;;;;;;6268061;22;20007;-87
2022/08/19 05:49:33;;;;;;;25.52;10.98;;;;;;;;;;6268696;22;20007;-87
2022/08/19 05:51:59;;;;;;;18.65;9.88;;;;;;;;;;6265601;22;20012;-87
2022/08/19 05:54:26;;;;;;;23.50;10.48;;;;;;;;;;6268942;22;20026;-87
2022/08/19 05:56:53;;;;;;;23.63;9.70;;;;;;;;;;6269161;22;20057;-88
2022/08/19 05:59:21;;;;;;;19.10;10.35;;;;;;;;;;6269379;22;20008;-88
2022/08/19 06:01:50;;;;;;;16.45;9.77;;;;;;;;;;6268075;22;20343;-87
2022/08/19 06:04:18;;;;;;;17.05;9.30;;;;;;;;;;6266870;22;20023;-87
2022/08/19 06:06:44;;;;;;;17.00;9.32;;;;;;;;;;6265831;22;20014;-87
2022/08/19 06:09:10;;;;;;;15.15;8.43;;;;;;;;;;6239965;22;20042;-87
2022/08/19 06:11:44;;;;;;;14.75;9.35;;;;;;;;;;6241113;22;20106;-87
2022/08/19 06:14:12;;;;;;;15.82;7.30;;;;;;;;;;6264953;22;20431;-87
2022/08/19 06:16:42;;;;;;;17.77;8.40;;;;;;;;;;6267794;22;19996;-87
2022/08/19 06:19:10;;;;;;;16.75;8.13;;;;;;;;;;6268022;22;20459;-87
2022/08/19 06:21:37;;;;;;;13.60;7.32;;;;;;;;;;6268373;22;20003;-86
2022/08/19 06:24:04;;;;;;;10.18;6.80;;;;;;;;;;6268519;22;20465;-87
2022/08/19 06:26:30;;;;;;;11.13;7.63;;;;;;;;;;6267534;22;20498;-87
2022/08/19 06:28:56;;;;;;;15.65;6.72;;;;;;;;;;6242596;22;20069;-87
2022/08/19 06:31:27;;;;;;;17.48;7.55;;;;;;;;;;6266987;22;20431;-87
2022/08/19 06:33:53;;;;;;;12.32;6.15;;;;;;;;;;6269395;22;20011;-87
2022/08/19 06:36:31;;;;;;;10.88;6.65;;;;;;;;;;6268023;22;20000;-88
2022/08/19 06:38:58;;;;;;;13.35;7.43;;;;;;;;;;6268157;22;20008;-87
2022/08/19 06:41:25;;;;;;;13.65;7.10;;;;;;;;;;6270734;22;20069;-91
2022/08/19 06:43:52;;;;;;;11.00;6.43;;;;;;;;;;6267552;22;20019;-91
2022/08/19 06:46:19;;;;;;;11.30;7.40;;;;;;;;;;6266274;22;20072;-88
2022/08/19 06:48:46;;;;;;;10.82;6.25;;;;;;;;;;6267019;22;20386;-88
2022/08/19 06:51:15;;;;;;;14.38;6.93;;;;;;;;;;6265810;22;20038;-87
2022/08/19 06:53:46;;;;;;;13.15;5.90;;;;;;;;;;6265105;22;20095;-86
2022/08/19 06:56:13;;;;;;;9.40;6.07;;;;;;;;;;6268372;22;20376;-86
2022/08/19 06:58:40;;;;;;;13.05;6.82;;;;;;;;;;6265884;22;20007;-87
2022/08/19 07:01:06;;;;;;;8.52;5.72;;;;;;;;;;6265212;22;20058;-87
2022/08/19 07:03:33;;;;;;;12.18;5.75;;;;;;;;;;6265546;22;20487;-86
2022/08/19 07:06:06;;;;;;;11.07;5.95;;;;;;;;;;6266356;22;20340;-87
2022/08/19 07:08:33;;;;;;;14.05;5.88;;;;;;;;;;6242226;22;20008;-87
2022/08/19 07:11:00;;;;;;;13.40;6.35;;;;;;;;;;6266736;22;20011;-87
2022/08/19 07:13:26;;;;;;;13.00;6.28;;;;;;;;;;6267228;22;20095;-85
2022/08/19 07:15:52;;;;;;;9.85;6.50;;;;;;;;;;6264418;22;20473;-87
2022/08/19 07:18:20;;;;;;;13.80;6.75;;;;;;;;;;6266063;22;20381;-88
2022/08/19 07:20:46;;;;;;;15.20;6.78;;;;;;;;;;6267644;22;20008;-88
2022/08/19 07:23:12;;;;;;;12.05;5.97;;;;;;;;;;6269156;22;20050;-88
2022/08/19 07:25:38;;;;;;;11.95;5.97;;;;;;;;;;6267697;22;20015;-88
2022/08/19 07:28:05;;;;;;;9.20;6.43;;;;;;;;;;6247234;22;20014;-88
2022/08/19 07:30:31;;;;;;;9.57;5.45;;;;;;;;;;6272167;22;20028;-88
2022/08/19 07:32:57;;;;;;;10.75;6.40;;;;;;;;;;6272525;22;20008;-87
2022/08/19 07:35:24;;;;;;;8.15;5.72;;;;;;;;;;6245356;22;20007;-88
2022/08/19 07:37:52;;;;;;;9.95;6.18;;;;;;;;;;6245383;22;20467;-87
2022/08/19 07:40:18;;;;;;;7.50;6.07;;;;;;;;;;6245400;22;20000;-87
2022/08/19 07:42:44;;;;;;;8.65;5.90;;;;;;;;;;6270443;22;20462;-87
2022/08/19 07:45:10;;;;;;;9.43;5.85;;;;;;;;;;6268682;22;20027;-87
2022/08/19 07:47:36;;;;;;;11.27;6.40;;;;;;;;;;6243446;22;20015;-87
2022/08/19 07:50:04;;;;;;;9.18;6.15;;;;;;;;;;6244590;22;20111;-87
2022/08/19 07:52:30;;;;;;;10.75;5.95;;;;;;;;;;6269043;22;20466;-87
2022/08/19 07:54:57;;;;;;;11.68;6.57;;;;;;;;;;6268476;22;20491;-87
2022/08/19 07:57:23;;;;;;;9.57;5.78;;;;;;;;;;6243536;22;20003;-87
2022/08/19 07:59:49;;;;;;;16.10;6.05;;;;;;;;;;6267030;22;20738;-88
2022/08/19 08:02:15;;;;;;;6.32;5.20;;;;;;;;;;6266933;22;20031;-88
2022/08/19 08:10:10;;;;;;;16.00;5.90;;;;;;;;;;6269697;22;20123;-87
2022/08/19 08:12:43;;;;;;;12.45;6.38;;;;;;;;;;6242397;22;20509;-88
2022/08/19 08:15:16;;;;;;;11.13;6.55;;;;;;;;;;6244003;22;20470;-88
2022/08/19 08:17:42;;;;;;;15.10;8.45;;;;;;;;;;6269208;22;20331;-87
2022/08/19 08:20:08;;;;;;;10.55;6.22;;;;;;;;;;6270769;22;20424;-88
2022/08/19 08:25:22;;;;;;;9.57;5.80;;;;;;;;;;6266912;22;20383;-88
2022/08/19 08:27:49;;;;;;;7.43;5.45;;;;;;;;;;6267645;22;20026;-87
2022/08/19 08:30:25;;;;;;;10.00;4.97;;;;;;;;;;6265583;22;20004;-87
2022/08/19 08:32:52;;;;;;;8.35;4.93;;;;;;;;;;6265038;22;20340;-88
2022/08/19 08:35:19;;;;;;;7.78;4.70;;;;;;;;;;6242245;22;20075;-88
2022/08/19 08:37:46;;;;;;;5.07;4.20;;;;;;;;;;6267664;22;20436;-87
2022/08/19 08:40:21;;;;;;;6.07;3.58;;;;;;;;;;6268507;22;20008;-87
2022/08/19 08:42:54;;;;;;;7.13;4.13;;;;;;;;;;6265728;22;20016;-87
2022/08/19 08:45:21;;;;;;;8.05;3.72;;;;;;;;;;6235118;22;20034;-88
2022/08/19 08:47:49;;;;;;;4.80;4.32;;;;;;;;;;6214779;22;20110;-87
2022/08/19 08:50:15;;;;;;;6.53;3.50;;;;;;;;;;6268223;22;20007;-87
2022/08/19 08:52:45;;;;;;;7.38;3.90;;;;;;;;;;6240086;22;20386;-88
2022/08/19 08:55:15;;;;;;;6.47;4.97;;;;;;;;;;6240835;22;20435;-88
2022/08/19 08:57:50;;;;;;;9.90;4.40;;;;;;;;;;6269217;22;20000;-88
2022/08/19 09:00:22;;;;;;;7.25;4.57;;;;;;;;;;6242220;22;20035;-88
2022/08/19 09:02:49;;;;;;;12.15;6.30;;;;;;;;;;6240217;22;20347;-87
2022/08/19 09:05:15;;;;;;;9.63;5.90;;;;;;;;;;6271322;22;20478;-87
2022/08/19 09:07:44;;;;;;;10.25;7.35;;;;;;;;;;6266505;22;20012;-86
2022/08/19 09:10:26;;;;;;;8.57;5.65;;;;;;;;;;6241528;22;20008;-88
2022/08/19 09:13:02;;;;;;;12.95;5.53;;;;;;;;;;6241448;22;20741;-88
2022/08/19 09:15:37;;;;;;;7.97;5.63;;;;;;;;;;6243086;22;20440;-88
2022/08/19 09:18:06;;;;;;;9.98;5.45;;;;;;;;;;6242147;22;20004;-88
2022/08/19 09:20:32;;;;;;;9.68;6.30;;;;;;;;;;6241536;22;20007;-88
2022/08/19 09:22:59;;;;;;;8.15;5.78;;;;;;;;;;6213883;22;20012;-88
2022/08/19 09:25:25;;;;;;;9.73;6.72;;;;;;;;;;6217155;22;20011;-88
2022/08/19 09:27:53;;;;;;;7.78;5.03;;;;;;;;;;6218026;22;20012;-88
2022/08/19 09:30:29;;;;;;;7.78;5.90;;;;;;;;;;6243788;22;20154;-88
2022/08/19 09:32:56;;;;;;;8.52;5.35;;;;;;;;;;6240386;22;20011;-88
2022/08/19 09:35:23;;;;;;;8.35;6.13;;;;;;;;;;6241266;22;20007;-88
2022/08/19 09:37:49;;;;;;;8.88;6.03;;;;;;;;;;6242160;22;20059;-88
2022/08/19 09:40:16;;;;;;;7.10;5.72;;;;;;;;;;6242322;22;20032;-88
2022/08/19 09:42:43;;;;;;;8.90;5.50;;;;;;;;;;6241065;22;20348;-88
2022/08/19 09:45:09;;;;;;;7.82;6.18;;;;;;;;;;6259303;22;20381;-88
2022/08/19 09:47:38;;;;;;;8.50;6.95;;;;;;;;;;6240448;22;20736;-88
2022/08/19 09:50:05;;;;;;;8.45;6.60;;;;;;;;;;6268024;22;20368;-88
2022/08/19 09:52:31;;;;;;;9.07;5.38;;;;;;;;;;6267170;22;20067;-88
2022/08/19 09:54:57;;;;;;;8.23;6.53;;;;;;;;;;6267220;22;20450;-88
2022/08/19 09:57:23;;;;;;;9.98;6.47;;;;;;;;;;6241368;22;20430;-88
2022/08/19 09:59:49;;;;;;;8.80;6.85;;;;;;;;;;6266894;22;20007;-88
2022/08/19 10:02:15;;;;;;;12.00;7.63;;;;;;;;;;6243045;22;20110;-88
2022/08/19 10:07:26;;;;;;;14.50;6.97;;;;;;;;;;6266711;22;20023;-88
2022/08/19 10:09:52;;;;;;;14.40;7.10;;;;;;;;;;6269701;22;20012;-87
2022/08/19 10:12:18;;;;;;;9.57;6.70;;;;;;;;;;6268394;22;20064;-88
2022/08/19 10:14:45;;;;;;;10.63;7.65;;;;;;;;;;6241096;22;20241;-90
2022/08/19 10:17:14;;;;;;;13.35;7.75;;;;;;;;;;6243428;22;20015;-88
2022/08/19 10:19:40;;;;;;;8.32;6.50;;;;;;;;;;6243788;22;20034;-88
2022/08/19 10:22:07;;;;;;;9.57;6.97;;;;;;;;;;6244206;22;20053;-88
2022/08/19 10:24:33;;;;;;;10.65;6.68;;;;;;;;;;6269746;22;20003;-88
2022/08/19 10:27:00;;;;;;;7.72;6.40;;;;;;;;;;6266983;22;20324;-88
2022/08/19 10:29:29;;;;;;;10.35;5.90;;;;;;;;;;6267139;22;20007;-88
2022/08/19 10:31:57;;;;;;;8.00;6.63;;;;;;;;;;6243884;22;20169;-88
2022/08/19 10:34:23;;;;;;;10.48;7.70;;;;;;;;;;6242417;22;20022;-88
2022/08/19 10:36:56;;;;;;;9.43;7.78;;;;;;;;;;6240341;22;20038;-87
2022/08/19 10:39:22;;;;;;;10.57;7.10;;;;;;;;;;6268741;22;20502;-88
2022/08/19 10:41:48;;;;;;;11.13;6.75;;;;;;;;;;6267499;22;20460;-88
2022/08/19 10:44:17;;;;;;;10.32;7.28;;;;;;;;;;6242068;22;20069;-88
2022/08/19 10:46:46;;;;;;;8.60;6.60;;;;;;;;;;6240871;22;20008;-89
2022/08/19 10:49:12;;;;;;;8.10;6.82;;;;;;;;;;6267640;22;20069;-89
2022/08/19 10:56:50;;;;;;;8.98;6.40;;;;;;;;;;6269435;22;20022;-89
2022/08/19 10:57:10;;;;;;;10.25;7.47;;;;;;;;;;6270705;22;20049;-89
2022/08/19 10:59:36;;;;;;;14.40;8.93;;;;;;;;;;6244041;22;20012;-88
2022/08/19 11:02:03;;;;;;;10.82;8.10;;;;;;;;;;6269638;22;20432;-89
2022/08/19 11:04:37;;;;;;;11.73;8.60;;;;;;;;;;6269332;22;20395;-89
2022/08/19 11:07:04;;;;;;;10.55;7.60;;;;;;;;;;6269436;22;20039;-88
2022/08/19 11:09:31;;;;;;;11.50;8.52;;;;;;;;;;6269378;22;20506;-89
2022/08/19 11:11:57;;;;;;;11.30;8.68;;;;;;;;;;6270383;22;20457;-89
2022/08/19 11:14:25;;;;;;;10.75;7.00;;;;;;;;;;6240922;22;20019;-88
2022/08/19 11:16:53;;;;;;;14.65;8.32;;;;;;;;;;6269219;22;20003;-89
2022/08/19 11:19:23;;;;;;;9.25;6.90;;;;;;;;;;6270376;22;20000;-89
2022/08/19 11:21:49;;;;;;;9.02;6.95;;;;;;;;;;6272498;22;20089;-88
2022/08/19 11:24:19;;;;;;;12.13;8.40;;;;;;;;;;6268043;22;20046;-89
2022/08/19 11:26:49;;;;;;;11.20;8.40;;;;;;;;;;6269224;22;20081;-88
2022/08/19 11:29:15;;;;;;;12.27;8.55;;;;;;;;;;6268866;22;20086;-89
2022/08/19 11:31:43;;;;;;;9.70;7.65;;;;;;;;;;6243912;22;20015;-88
2022/08/19 11:34:11;;;;;;;8.48;6.85;;;;;;;;;;6268001;22;20003;-88
2022/08/19 11:36:39;;;;;;;10.07;7.90;;;;;;;;;;6267626;22;20011;-89
2022/08/19 11:39:06;;;;;;;10.40;6.75;;;;;;;;;;6267789;22;20084;-89
2022/08/19 11:41:32;;;;;;;10.05;7.82;;;;;;;;;;6270914;22;20424;-88
2022/08/19 11:44:04;;;;;;;8.45;7.13;;;;;;;;;;6247276;22;20045;-89
2022/08/19 11:46:38;;;;;;;10.25;7.95;;;;;;;;;;6213140;23;20020;-89
2022/08/19 11:49:07;;;;;;;14.85;7.75;;;;;;;;;;6238072;23;20438;-88
2022/08/19 11:51:33;;;;;;;8.30;7.22;;;;;;;;;;6212169;23;20019;-88
2022/08/19 11:53:59;;;;;;;12.50;7.60;;;;;;;;;;6238214;23;20059;-89
2022/08/19 11:56:27;;;;;;;10.60;8.60;;;;;;;;;;6235213;23;20011;-89
2022/08/19 11:58:53;;;;;;;11.88;7.32;;;;;;;;;;6236472;23;20008;-89
2022/08/19 12:01:21;;;;;;;7.70;6.55;;;;;;;;;;6236718;23;20008;-89
2022/08/19 12:03:47;;;;;;;12.98;8.52;;;;;;;;;;6233852;23;20007;-88
2022/08/19 12:06:15;;;;;;;10.57;8.30;;;;;;;;;;6236534;23;20008;-89
2022/08/19 12:08:42;;;;;;;9.00;7.32;;;;;;;;;;6232927;23;20008;-88
2022/08/19 12:11:09;;;;;;;10.77;8.65;;;;;;;;;;6236573;22;20038;-88
2022/08/19 12:13:36;;;;;;;15.57;9.48;;;;;;;;;;6237413;23;20511;-87
2022/08/19 12:16:08;;;;;;;10.35;8.30;;;;;;;;;;6233301;23;20447;-88
2022/08/19 12:18:34;;;;;;;11.30;9.18;;;;;;;;;;6237958;23;20445;-88
2022/08/19 12:21:00;;;;;;;13.45;9.10;;;;;;;;;;6210942;23;20395;-88
2022/08/19 12:23:26;;;;;;;12.63;8.82;;;;;;;;;;6212897;23;20012;-88
2022/08/19 12:25:52;;;;;;;11.30;8.27;;;;;;;;;;6209626;23;20023;-88
2022/08/19 12:28:22;;;;;;;13.05;8.18;;;;;;;;;;6235874;23;20012;-88
2022/08/19 12:30:52;;;;;;;12.75;8.02;;;;;;;;;;6235113;23;20008;-88
2022/08/19 12:33:19;;;;;;;10.45;8.63;;;;;;;;;;6211838;23;20554;-89
2022/08/19 12:35:46;;;;;;;14.82;8.75;;;;;;;;;;6236084;22;20429;-88
2022/08/19 12:38:13;;;;;;;11.02;7.82;;;;;;;;;;6235459;23;20019;-88
2022/08/19 12:40:41;;;;;;;8.23;6.05;;;;;;;;;;6234352;23;20008;-88
2022/08/19 12:43:08;;;;;;;13.80;8.73;;;;;;;;;;6236421;23;20066;-88
2022/08/19 12:45:35;;;;;;;12.38;8.32;;;;;;;;;;6253188;22;20424;-88
2022/08/19 12:48:01;;;;;;;15.73;8.40;;;;;;;;;;6239268;22;20041;-88
2022/08/19 12:50:28;;;;;;;11.35;9.02;;;;;;;;;;6265140;22;20012;-87
2022/08/19 12:52:54;;;;;;;10.15;8.40;;;;;;;;;;6266367;22;20502;-88
2022/08/19 12:55:20;;;;;;;10.82;8.70;;;;;;;;;;6265372;22;20431;-88
2022/08/19 12:57:48;;;;;;;12.02;7.70;;;;;;;;;;6241150;22;20004;-88
2022/08/19 13:00:16;;;;;;;13.32;9.18;;;;;;;;;;6263926;22;20505;-88
2022/08/19 13:02:44;;;;;;;14.35;7.95;;;;;;;;;;6268263;22;20008;-88
2022/08/19 13:05:11;;;;;;;17.15;8.57;;;;;;;;;;6268287;22;20014;-88
2022/08/19 13:07:39;;;;;;;7.93;6.60;;;;;;;;;;6264582;22;20015;-88
2022/08/19 13:10:06;;;;;;;14.10;7.78;;;;;;;;;;6267276;22;20010;-88
2022/08/19 13:12:32;;;;;;;9.82;7.70;;;;;;;;;;6270179;22;20008;-90
2022/08/19 13:14:58;;;;;;;18.55;7.68;;;;;;;;;;6244834;22;20106;-88
2022/08/19 13:17:24;;;;;;;13.50;8.32;;;;;;;;;;6244019;22;20639;-88
2022/08/19 13:19:50;;;;;;;10.88;8.18;;;;;;;;;;6245812;22;20066;-88
2022/08/19 13:22:16;;;;;;;12.07;8.23;;;;;;;;;;6242050;22;20012;-89
2022/08/19 13:24:42;;;;;;;14.60;8.35;;;;;;;;;;6243748;22;20007;-88
2022/08/19 13:27:08;;;;;;;12.10;9.68;;;;;;;;;;6267555;22;20218;-89
2022/08/19 13:35:23;;;;;;;16.88;10.07;;;;;;;;;;6159188;23;20088;-87
2022/08/19 13:37:50;;;;;;;15.48;11.07;;;;;;;;;;6126968;23;20070;-87
2022/08/19 13:40:22;;;;;;;21.30;11.73;;;;;;;;;;6203027;22;20049;-87
2022/08/19 13:42:50;;;;;;;23.70;11.93;;;;;;;;;;6270556;22;20064;-87
2022/08/19 13:45:17;;;;;;;15.70;8.52;;;;;;;;;;6268127;22;20459;-87
2022/08/19 13:47:46;;;;;;;15.10;8.65;;;;;;;;;;6266445;22;20015;-88
2022/08/19 13:50:13;;;;;;;15.13;9.82;;;;;;;;;;6266677;22;20003;-87
2022/08/19 13:52:39;;;;;;;15.93;7.95;;;;;;;;;;6265582;22;20439;-87
2022/08/19 13:55:06;;;;;;;19.00;10.80;;;;;;;;;;6265792;22;20056;-87
2022/08/19 13:57:33;;;;;;;15.43;10.77;;;;;;;;;;6264358;22;20012;-89
2022/08/19 13:59:59;;;;;;;19.90;10.32;;;;;;;;;;6267747;22;20087;-89
2022/08/19 14:02:26;;;;;;;14.07;9.65;;;;;;;;;;6242357;22;20004;-88
2022/08/19 14:04:52;;;;;;;14.35;9.38;;;;;;;;;;6268376;22;20012;-88
2022/08/19 14:07:18;;;;;;;19.77;10.05;;;;;;;;;;6267307;22;20386;-89
2022/08/19 14:09:44;;;;;;;18.83;8.50;;;;;;;;;;6267154;22;20007;-88
2022/08/19 14:12:10;;;;;;;19.98;8.43;;;;;;;;;;6239302;22;20015;-89
2022/08/19 14:14:37;;;;;;;16.75;8.75;;;;;;;;;;6238975;22;20008;-88
2022/08/19 14:17:06;;;;;;;13.75;7.43;;;;;;;;;;6268878;22;20022;-88
2022/08/19 14:19:32;;;;;;;11.55;7.07;;;;;;;;;;6268493;22;20030;-88
2022/08/19 14:21:58;;;;;;;9.27;6.35;;;;;;;;;;6267051;22;20061;-88
2022/08/19 14:24:24;;;;;;;11.48;6.22;;;;;;;;;;6267801;22;20121;-88
2022/08/19 14:26:50;;;;;;;13.02;8.63;;;;;;;;;;6266552;22;20012;-89
2022/08/19 14:29:17;;;;;;;10.25;6.80;;;;;;;;;;6266415;22;20011;-88
2022/08/19 14:31:43;;;;;;;8.57;5.70;;;;;;;;;;6268601;22;20004;-88
2022/08/19 14:34:09;;;;;;;17.05;6.25;;;;;;;;;;6267989;22;19999;-88
2022/08/19 14:36:36;;;;;;;12.05;5.97;;;;;;;;;;6266562;22;20012;-88
2022/08/19 14:39:03;;;;;;;14.68;7.90;;;;;;;;;;6268902;22;20091;-88
2022/08/19 14:41:30;;;;;;;16.27;8.32;;;;;;;;;;6265509;22;20094;-88
2022/08/19 14:43:56;;;;;;;16.67;9.35;;;;;;;;;;6266071;22;20016;-88
2022/08/19 14:46:25;;;;;;;18.17;9.70;;;;;;;;;;6241778;22;20344;-88
2022/08/19 14:48:51;;;;;;;16.27;9.93;;;;;;;;;;6265807;22;20007;-88
2022/08/19 14:51:18;;;;;;;16.52;8.80;;;;;;;;;;6268076;22;20004;-88
2022/08/19 14:53:44;;;;;;;16.00;9.32;;;;;;;;;;6266135;22;20016;-88
2022/08/19 14:56:11;;;;;;;12.75;8.48;;;;;;;;;;6243503;22;20435;-88
2022/08/19 14:58:37;;;;;;;17.67;8.45;;;;;;;;;;6267376;22;20043;-88